createdAt,value
2018-01-07T00:01:40.318Z,3.32
2018-01-07T00:04:08.868Z,3.33
2018-01-07T00:06:37.580Z,3.40
2018-01-07T00:09:06.268Z,3.50
2018-01-07T00:11:34.916Z,3.70
2018-01-07T00:14:03.637Z,3.72
2018-01-07T00:16:32.432Z,3.68
2018-01-07T00:19:01.118Z,3.80
2018-01-07T00:21:29.757Z,3.67
2018-01-07T00:23:59.253Z,3.46
2018-01-07T00:26:28.591Z,3.65
2018-01-07T00:28:57.289Z,3.47
2018-01-07T00:31:26.083Z,3.50
2018-01-07T00:33:54.721Z,3.62
2018-01-07T00:36:24.175Z,3.77
2018-01-07T00:38:52.860Z,3.79
2018-01-07T00:41:21.638Z,3.60
2018-01-07T00:43:50.325Z,3.50
2018-01-07T00:46:19.121Z,3.70
2018-01-07T00:48:47.808Z,3.91
2018-01-07T00:51:16.446Z,3.84
2018-01-07T00:53:46.039Z,3.62
2018-01-07T00:56:15.499Z,3.41
2018-01-07T00:58:44.086Z,3.60
2018-01-07T01:01:12.872Z,3.80
2018-01-07T01:03:41.556Z,3.73
2018-01-07T01:06:10.136Z,3.26
2018-01-07T01:08:38.873Z,2.87
2018-01-07T01:11:08.316Z,2.97
2018-01-07T01:13:37.012Z,3.12
2018-01-07T01:16:05.808Z,3.16
2018-01-07T01:18:34.493Z,3.25
2018-01-07T01:21:03.071Z,2.90
2018-01-07T01:23:31.866Z,2.98
2018-01-07T01:26:00.551Z,3.12
2018-01-07T01:28:29.100Z,3.06
2018-01-07T01:30:57.829Z,2.93
2018-01-07T01:33:26.500Z,3.09
2018-01-07T01:35:55.185Z,3.10
2018-01-07T01:38:24.136Z,2.98
2018-01-07T01:40:52.870Z,2.89
2018-01-07T01:43:21.593Z,3.03
2018-01-07T01:45:51.413Z,3.13
2018-01-07T01:48:20.875Z,2.95
2018-01-07T01:50:49.546Z,2.87
2018-01-07T01:53:18.291Z,2.91
2018-01-07T01:55:53.030Z,2.54
2018-01-07T01:58:22.726Z,2.67
2018-01-07T02:00:52.181Z,2.56
2018-01-07T02:03:20.869Z,2.48
2018-01-07T02:05:49.747Z,2.40
2018-01-07T02:08:18.447Z,2.64
2018-01-07T02:10:47.189Z,2.64
2018-01-07T02:13:16.279Z,2.44
2018-01-07T02:15:45.733Z,2.30
2018-01-07T02:18:14.420Z,2.39
2018-01-07T02:20:43.160Z,2.47
2018-01-07T02:23:11.889Z,2.60
2018-01-07T02:25:40.686Z,2.64
2018-01-07T02:28:09.568Z,2.60
2018-01-07T02:30:38.364Z,2.70
2018-01-07T02:33:07.051Z,2.75
2018-01-07T02:35:35.835Z,2.86
2018-01-07T02:38:04.509Z,2.83
2018-01-07T02:40:33.207Z,2.77
2018-01-07T02:43:02.101Z,2.96
2018-01-07T02:45:30.787Z,2.98
2018-01-07T02:47:59.472Z,2.64
2018-01-07T02:50:28.355Z,2.91
2018-01-07T02:52:56.946Z,3.16
2018-01-07T02:55:25.632Z,2.70
2018-01-07T02:57:54.721Z,2.46
2018-01-07T03:00:23.406Z,2.57
2018-01-07T03:02:52.036Z,2.61
2018-01-07T03:05:21.655Z,2.62
2018-01-07T03:07:50.385Z,2.79
2018-01-07T03:10:19.039Z,2.97
2018-01-07T03:12:47.756Z,2.95
2018-01-07T03:15:16.401Z,3.01
2018-01-07T03:17:45.128Z,3.02
2018-01-07T03:20:14.225Z,3.00
2018-01-07T03:22:42.917Z,3.19
2018-01-07T03:25:11.603Z,3.26
2018-01-07T03:27:40.486Z,3.13
2018-01-07T03:30:09.131Z,3.01
2018-01-07T03:32:37.858Z,3.01
2018-01-07T03:35:06.857Z,3.07
2018-01-07T03:37:35.437Z,3.08
2018-01-07T03:40:04.152Z,2.99
2018-01-07T03:42:33.694Z,2.98
2018-01-07T03:45:02.418Z,2.85
2018-01-07T03:47:31.004Z,2.68
2018-01-07T03:49:59.697Z,2.78
2018-01-07T03:52:28.264Z,2.52
2018-01-07T03:54:56.908Z,2.41
2018-01-07T03:57:25.638Z,2.18
2018-01-07T03:59:54.293Z,1.92
2018-01-07T04:02:23.009Z,2.28
2018-01-07T04:04:51.696Z,2.51
2018-01-07T04:07:20.393Z,2.34
2018-01-07T04:09:49.067Z,1.99
2018-01-07T04:12:17.753Z,2.30
2018-01-07T04:14:46.439Z,2.35
2018-01-07T04:17:15.333Z,2.33
2018-01-07T04:19:44.309Z,2.45
2018-01-07T04:22:13.012Z,2.38
2018-01-07T04:24:41.698Z,2.29
2018-01-07T04:27:10.482Z,2.33
2018-01-07T04:29:39.168Z,2.27
2018-01-07T04:32:07.755Z,2.15
2018-01-07T04:34:36.689Z,2.03
2018-01-07T04:37:06.108Z,1.99
2018-01-07T04:39:34.734Z,1.88
2018-01-07T04:42:03.351Z,1.74
2018-01-07T04:44:32.061Z,1.79
2018-01-07T04:47:00.792Z,1.67
2018-01-07T04:49:29.576Z,1.67
2018-01-07T04:51:58.164Z,1.71
2018-01-07T04:54:26.850Z,1.85
2018-01-07T04:56:55.633Z,1.68
2018-01-07T04:59:24.266Z,1.66
2018-01-07T05:01:53.681Z,1.81
2018-01-07T05:04:22.802Z,1.91
2018-01-07T05:06:51.507Z,2.02
2018-01-07T05:09:20.099Z,2.14
2018-01-07T05:11:48.879Z,2.29
2018-01-07T05:14:17.522Z,2.32
2018-01-07T05:16:46.251Z,2.43
2018-01-07T05:19:15.404Z,2.38
2018-01-07T05:21:44.852Z,2.42
2018-01-07T05:24:13.537Z,2.52
2018-01-07T05:26:42.531Z,2.48
2018-01-07T05:29:11.216Z,2.49
2018-01-07T05:31:39.901Z,2.41
2018-01-07T05:34:08.735Z,2.42
2018-01-07T05:36:38.099Z,2.44
2018-01-07T05:39:06.746Z,2.54
2018-01-07T05:41:35.569Z,2.34
2018-01-07T05:44:04.210Z,2.25
2018-01-07T05:46:32.941Z,2.33
2018-01-07T05:49:01.634Z,2.36
2018-01-07T05:51:30.313Z,2.34
2018-01-07T05:53:58.955Z,2.53
2018-01-07T05:56:27.949Z,2.43
2018-01-07T05:58:56.675Z,1.62
2018-01-07T06:01:25.412Z,1.52
2018-01-07T06:03:54.876Z,1.42
2018-01-07T06:06:23.446Z,1.23
2018-01-07T06:08:52.131Z,1.17
2018-01-07T06:11:21.103Z,1.59
2018-01-07T06:13:49.772Z,1.96
2018-01-07T06:16:18.496Z,2.26
2018-01-07T06:18:47.458Z,2.25
2018-01-07T06:21:16.175Z,2.45
2018-01-07T06:23:44.862Z,2.73
2018-01-07T06:26:13.657Z,2.89
2018-01-07T06:28:42.324Z,3.00
2018-01-07T06:31:10.966Z,3.37
2018-01-07T06:33:40.636Z,3.74
2018-01-07T06:36:09.184Z,3.85
2018-01-07T06:38:37.897Z,3.97
2018-01-07T06:41:06.892Z,4.14
2018-01-07T06:43:35.534Z,4.25
2018-01-07T06:46:04.262Z,4.34
2018-01-07T06:48:33.058Z,4.81
2018-01-07T06:51:01.633Z,4.89
2018-01-07T06:53:30.280Z,5.02
2018-01-07T06:55:59.321Z,5.05
2018-01-07T06:58:27.999Z,5.21
2018-01-07T07:00:56.684Z,5.50
2018-01-07T07:03:25.373Z,5.88
2018-01-07T07:05:53.959Z,6.16
2018-01-07T07:08:22.742Z,6.45
2018-01-07T07:10:51.681Z,6.78
2018-01-07T07:13:21.146Z,6.97
2018-01-07T07:15:49.786Z,7.09
2018-01-07T07:18:18.883Z,7.12
2018-01-07T07:20:47.609Z,7.54
2018-01-07T07:23:16.294Z,7.23
2018-01-07T07:25:45.288Z,6.81
2018-01-07T07:28:13.973Z,7.00
2018-01-07T07:30:42.646Z,6.86
2018-01-07T07:33:11.246Z,7.39
2018-01-07T07:35:39.932Z,7.68
2018-01-07T07:38:08.571Z,8.02
2018-01-07T07:40:38.067Z,8.03
2018-01-07T07:43:06.801Z,8.40
2018-01-07T07:45:35.424Z,8.49
2018-01-07T07:48:05.047Z,8.44
2018-01-07T07:50:33.781Z,8.97
2018-01-07T07:53:02.432Z,9.04
2018-01-07T07:55:31.196Z,9.28
2018-01-07T07:58:00.662Z,9.58
2018-01-07T08:00:29.208Z,9.50
2018-01-07T08:02:58.277Z,9.67
2018-01-07T08:05:27.739Z,10.27
2018-01-07T08:07:56.425Z,10.18
2018-01-07T08:10:25.381Z,9.69
2018-01-07T08:12:54.103Z,9.93
2018-01-07T08:15:22.743Z,10.69
2018-01-07T08:17:51.685Z,10.25
2018-01-07T08:20:20.328Z,10.23
2018-01-07T08:22:49.056Z,10.58
2018-01-07T08:25:17.990Z,10.34
2018-01-07T08:27:47.308Z,10.69
2018-01-07T08:30:16.024Z,10.69
2018-01-07T08:32:45.821Z,10.70
2018-01-07T08:35:15.331Z,10.59
2018-01-07T08:37:43.905Z,10.65
2018-01-07T08:40:12.643Z,11.08
2018-01-07T08:42:42.101Z,10.79
2018-01-07T08:45:10.824Z,11.65
2018-01-07T08:47:40.493Z,11.36
2018-01-07T08:50:09.179Z,11.89
2018-01-07T08:52:37.767Z,11.79
2018-01-07T08:55:06.550Z,11.65
2018-01-07T08:57:35.236Z,11.98
2018-01-07T09:00:03.824Z,12.62
2018-01-07T09:02:32.816Z,12.97
2018-01-07T09:05:01.502Z,13.01
2018-01-07T09:07:30.080Z,13.09
2018-01-07T09:09:58.973Z,13.28
2018-01-07T09:12:27.658Z,13.54
2018-01-07T09:14:56.344Z,14.02
2018-01-07T09:17:25.140Z,13.87
2018-01-07T09:19:53.832Z,13.59
2018-01-07T09:22:22.404Z,13.75
2018-01-07T09:24:51.196Z,13.19
2018-01-07T09:27:19.833Z,13.49
2018-01-07T09:29:49.285Z,14.07
2018-01-07T09:32:18.176Z,14.59
2018-01-07T09:34:46.862Z,13.80
2018-01-07T09:37:15.649Z,13.81
2018-01-07T09:39:44.401Z,14.62
2018-01-07T09:42:13.117Z,14.59
2018-01-07T09:44:41.764Z,13.98
2018-01-07T09:47:10.495Z,14.19
2018-01-07T09:49:39.174Z,15.18
2018-01-07T09:52:07.761Z,15.53
2018-01-07T09:54:36.655Z,15.47
2018-01-07T09:57:05.441Z,15.31
2018-01-07T09:59:34.121Z,15.65
2018-01-07T10:02:03.188Z,15.15
2018-01-07T10:04:31.907Z,15.54
2018-01-07T10:07:00.591Z,15.28
2018-01-07T10:09:29.541Z,15.30
2018-01-07T10:11:58.269Z,15.38
2018-01-07T10:14:26.856Z,15.11
2018-01-07T10:16:55.948Z,15.88
2018-01-07T10:19:24.635Z,15.96
2018-01-07T10:21:53.224Z,15.77
2018-01-07T10:24:21.925Z,15.46
2018-01-07T10:26:51.364Z,15.90
2018-01-07T10:29:20.860Z,16.10
2018-01-07T10:31:50.377Z,16.55
2018-01-07T10:34:19.108Z,16.69
2018-01-07T10:36:47.793Z,16.02
2018-01-07T10:39:16.884Z,16.20
2018-01-07T10:41:45.570Z,16.44
2018-01-07T10:44:14.257Z,16.53
2018-01-07T10:46:43.052Z,16.62
2018-01-07T10:49:11.608Z,17.73
2018-01-07T10:51:40.218Z,17.42
2018-01-07T10:54:09.013Z,17.37
2018-01-07T10:56:37.795Z,17.69
2018-01-07T10:59:06.481Z,17.50
2018-01-07T11:01:40.568Z,17.01
2018-01-07T11:04:15.733Z,17.08
2018-01-07T11:06:44.451Z,17.43
2018-01-07T11:09:13.872Z,17.65
2018-01-07T11:11:43.318Z,17.69
2018-01-07T11:14:12.006Z,17.70
2018-01-07T11:16:40.690Z,17.75
2018-01-07T11:19:09.484Z,18.38
2018-01-07T11:21:38.165Z,18.01
2018-01-07T11:24:06.856Z,17.76
2018-01-07T11:26:35.495Z,17.68
2018-01-07T11:29:04.428Z,17.92
2018-01-07T11:31:33.012Z,17.64
2018-01-07T11:34:01.699Z,17.90
2018-01-07T11:36:30.483Z,17.90
2018-01-07T11:38:59.169Z,18.58
2018-01-07T11:41:27.854Z,19.00
2018-01-07T11:43:56.649Z,18.38
2018-01-07T11:46:25.289Z,18.72
2018-01-07T11:48:54.021Z,18.33
2018-01-07T11:51:22.853Z,18.48
2018-01-07T11:53:52.268Z,18.75
2018-01-07T11:56:21.001Z,18.85
2018-01-07T11:58:49.789Z,19.24
2018-01-07T12:01:19.025Z,18.48
2018-01-07T12:03:48.447Z,18.76
2018-01-07T12:06:17.336Z,18.26
2018-01-07T12:08:46.065Z,18.38
2018-01-07T12:11:14.749Z,17.99
2018-01-07T12:13:43.690Z,17.90
2018-01-07T12:16:13.142Z,17.80
2018-01-07T12:18:41.828Z,17.78
2018-01-07T12:21:10.769Z,17.69
2018-01-07T12:23:40.232Z,18.30
2018-01-07T12:26:08.902Z,18.43
2018-01-07T12:28:37.648Z,17.90
2018-01-07T12:31:07.119Z,18.53
2018-01-07T12:33:35.784Z,18.00
2018-01-07T12:36:04.575Z,17.93
2018-01-07T12:38:33.217Z,18.02
2018-01-07T12:41:02.666Z,18.07
2018-01-07T12:43:31.450Z,17.84
2018-01-07T12:46:00.136Z,17.71
2018-01-07T12:48:28.692Z,17.82
2018-01-07T12:50:57.608Z,17.81
2018-01-07T12:53:26.165Z,17.87
2018-01-07T12:55:54.878Z,17.82
2018-01-07T12:58:23.772Z,17.44
2018-01-07T13:00:52.458Z,17.49
2018-01-07T13:03:21.242Z,17.41
2018-01-07T13:05:49.958Z,16.95
2018-01-07T13:08:18.616Z,16.57
2018-01-07T13:10:47.299Z,16.70
2018-01-07T13:13:16.093Z,16.76
2018-01-07T13:15:44.764Z,16.78
2018-01-07T13:18:13.465Z,16.92
2018-01-07T13:20:42.250Z,17.12
2018-01-07T13:23:10.836Z,17.21
2018-01-07T13:25:39.392Z,17.58
2018-01-07T13:28:08.620Z,17.77
2018-01-07T13:30:37.396Z,17.67
2018-01-07T13:33:06.083Z,17.62
2018-01-07T13:35:34.831Z,17.18
2018-01-07T13:38:04.377Z,16.83
2018-01-07T13:40:33.061Z,16.34
2018-01-07T13:43:01.858Z,15.98
2018-01-07T13:45:30.433Z,15.73
2018-01-07T13:47:59.117Z,15.67
2018-01-07T13:50:28.110Z,15.60
2018-01-07T13:52:56.668Z,15.71
2018-01-07T13:55:25.382Z,15.69
2018-01-07T13:57:54.165Z,15.95
2018-01-07T14:00:22.852Z,16.24
2018-01-07T14:02:51.446Z,16.09
2018-01-07T14:05:20.432Z,16.13
2018-01-07T14:07:49.215Z,15.76
2018-01-07T14:10:17.862Z,15.64
2018-01-07T14:12:46.892Z,15.70
2018-01-07T14:15:15.577Z,15.97
2018-01-07T14:17:44.216Z,16.11
2018-01-07T14:20:13.678Z,15.90
2018-01-07T14:22:42.299Z,15.85
2018-01-07T14:25:11.695Z,15.67
2018-01-07T14:27:41.211Z,15.20
2018-01-07T14:30:10.658Z,14.89
2018-01-07T14:32:39.348Z,14.62
2018-01-07T14:35:08.042Z,14.34
2018-01-07T14:37:36.818Z,14.13
2018-01-07T14:40:05.504Z,13.77
2018-01-07T14:42:34.399Z,13.48
2018-01-07T14:45:03.140Z,13.16
2018-01-07T14:47:31.768Z,12.90
2018-01-07T14:50:00.596Z,12.83
2018-01-07T14:52:30.018Z,12.61
2018-01-07T14:54:58.747Z,12.54
2018-01-07T14:57:27.947Z,12.46
2018-01-07T14:59:56.536Z,12.29
2018-01-07T15:02:25.313Z,12.03
2018-01-07T15:04:54.133Z,12.16
2018-01-07T15:07:23.597Z,11.95
2018-01-07T15:09:52.291Z,11.82
2018-01-07T15:12:21.258Z,11.66
2018-01-07T15:14:49.873Z,11.57
2018-01-07T15:17:18.551Z,11.26
2018-01-07T15:19:47.290Z,11.14
2018-01-07T15:22:16.733Z,11.07
2018-01-07T15:24:45.429Z,10.96
2018-01-07T15:27:14.369Z,10.99
2018-01-07T15:29:43.788Z,10.72
2018-01-07T15:32:12.928Z,10.67
2018-01-07T15:34:42.114Z,10.60
2018-01-07T15:37:10.800Z,10.43
2018-01-07T15:39:39.439Z,10.22
2018-01-07T15:42:08.177Z,10.10
2018-01-07T15:44:36.965Z,10.01
2018-01-07T15:47:05.646Z,9.89
2018-01-07T15:49:34.435Z,9.96
2018-01-07T15:52:03.075Z,9.74
2018-01-07T15:54:31.774Z,10.02
2018-01-07T15:57:00.799Z,10.27
2018-01-07T15:59:29.427Z,10.16
2018-01-07T16:02:01.761Z,10.05
2018-01-07T16:04:38.488Z,9.82
2018-01-07T16:07:07.208Z,9.65
2018-01-07T16:09:35.900Z,9.61
2018-01-07T16:12:04.867Z,9.65
2018-01-07T16:14:33.676Z,9.49
2018-01-07T16:17:02.520Z,9.47
2018-01-07T16:19:32.177Z,9.21
2018-01-07T16:22:00.863Z,8.92
2018-01-07T16:24:29.416Z,8.92
2018-01-07T16:26:58.298Z,8.77
2018-01-07T16:29:27.019Z,8.76
2018-01-07T16:31:55.609Z,8.82
2018-01-07T16:34:24.494Z,8.79
2018-01-07T16:36:53.184Z,8.95
2018-01-07T16:39:21.810Z,8.92
2018-01-07T16:41:51.293Z,8.94
2018-01-07T16:44:19.859Z,8.93
2018-01-07T16:46:48.488Z,8.81
2018-01-07T16:49:18.028Z,8.68
2018-01-07T16:51:46.633Z,8.80
2018-01-07T16:54:15.411Z,8.79
2018-01-07T16:56:45.535Z,8.87
2018-01-07T16:59:14.156Z,8.92
2018-01-07T17:01:43.574Z,8.94
2018-01-07T17:04:12.413Z,8.86
2018-01-07T17:06:41.099Z,8.84
2018-01-07T17:09:09.785Z,8.75
2018-01-07T17:11:38.722Z,8.63
2018-01-07T17:14:08.113Z,8.46
2018-01-07T17:16:37.575Z,8.46
2018-01-07T17:19:06.326Z,8.54
2018-01-07T17:21:35.773Z,8.55
2018-01-07T17:24:04.510Z,8.64
2018-01-07T17:26:33.301Z,8.40
2018-01-07T17:29:02.747Z,8.26
2018-01-07T17:31:31.336Z,8.45
2018-01-07T17:34:00.328Z,8.45
2018-01-07T17:36:29.012Z,8.36
2018-01-07T17:38:57.592Z,8.39
2018-01-07T17:41:26.483Z,8.50
2018-01-07T17:43:55.552Z,8.53
2018-01-07T17:46:24.259Z,8.56
2018-01-07T17:48:53.056Z,8.51
2018-01-07T17:51:21.750Z,8.38
2018-01-07T17:53:50.427Z,8.57
2018-01-07T17:56:19.266Z,8.62
2018-01-07T17:58:47.995Z,8.39
2018-01-07T18:01:16.680Z,8.32
2018-01-07T18:03:45.475Z,8.37
2018-01-07T18:06:14.161Z,8.37
2018-01-07T18:08:42.836Z,8.28
2018-01-07T18:11:11.632Z,8.20
2018-01-07T18:13:40.318Z,7.90
2018-01-07T18:16:08.904Z,7.94
2018-01-07T18:18:37.787Z,7.79
2018-01-07T18:21:06.419Z,7.63
2018-01-07T18:23:35.885Z,7.46
2018-01-07T18:26:04.766Z,7.32
2018-01-07T18:28:33.450Z,7.07
2018-01-07T18:31:02.137Z,7.07
2018-01-07T18:33:30.831Z,7.04
2018-01-07T18:35:59.478Z,6.63
2018-01-07T18:38:28.194Z,6.50
2018-01-07T18:40:56.985Z,6.50
2018-01-07T18:43:25.569Z,6.50
2018-01-07T18:45:54.152Z,6.33
2018-01-07T18:48:23.047Z,6.48
2018-01-07T18:50:51.834Z,6.38
2018-01-07T18:53:20.401Z,6.61
2018-01-07T18:55:49.203Z,6.66
2018-01-07T18:58:17.889Z,6.65
2018-01-07T19:00:46.577Z,6.82
2018-01-07T19:03:15.468Z,6.90
2018-01-07T19:05:44.025Z,6.99
2018-01-07T19:08:12.683Z,6.80
2018-01-07T19:10:41.416Z,6.82
2018-01-07T19:13:10.004Z,6.63
2018-01-07T19:15:38.589Z,6.35
2018-01-07T19:18:07.728Z,5.96
2018-01-07T19:20:37.143Z,6.20
2018-01-07T19:23:05.767Z,6.09
2018-01-07T19:25:34.632Z,6.05
2018-01-07T19:28:03.348Z,6.14
2018-01-07T19:30:32.033Z,6.32
2018-01-07T19:33:01.182Z,6.38
2018-01-07T19:35:30.500Z,6.10
2018-01-07T19:37:59.094Z,6.07
2018-01-07T19:40:27.862Z,5.89
2018-01-07T19:42:56.420Z,5.75
2018-01-07T19:45:25.846Z,5.50
2018-01-07T19:47:54.883Z,5.42
2018-01-07T19:50:23.460Z,5.52
2018-01-07T19:52:52.145Z,5.80
2018-01-07T19:55:21.347Z,6.01
2018-01-07T19:57:49.989Z,5.91
2018-01-07T20:00:18.705Z,5.63
2018-01-07T20:02:47.611Z,5.54
2018-01-07T20:05:16.237Z,5.04
2018-01-07T20:07:45.633Z,5.12
2018-01-07T20:10:15.252Z,4.94
2018-01-07T20:12:44.703Z,5.04
2018-01-07T20:15:13.387Z,5.02
2018-01-07T20:17:42.076Z,4.86
2018-01-07T20:20:10.731Z,4.96
2018-01-07T20:22:39.415Z,4.99
2018-01-07T20:25:08.408Z,5.07
2018-01-07T20:27:37.123Z,5.12
2018-01-07T20:30:05.769Z,5.10
2018-01-07T20:32:34.761Z,5.13
2018-01-07T20:35:03.491Z,5.32
2018-01-07T20:37:32.081Z,5.39
2018-01-07T20:40:00.789Z,5.39
2018-01-07T20:42:30.205Z,4.91
2018-01-07T20:44:58.897Z,4.89
2018-01-07T20:47:28.417Z,4.84
2018-01-07T20:49:57.139Z,5.06
2018-01-07T20:52:25.933Z,4.73
2018-01-07T20:54:54.671Z,4.54
2018-01-07T20:57:24.120Z,4.61
2018-01-07T20:59:52.804Z,4.44
2018-01-07T21:02:21.649Z,4.50
2018-01-07T21:04:51.096Z,4.68
2018-01-07T21:07:19.990Z,4.67
2018-01-07T21:09:48.983Z,4.78
2018-01-07T21:12:17.768Z,4.79
2018-01-07T21:14:46.563Z,5.02
2018-01-07T21:17:15.304Z,5.00
2018-01-07T21:19:44.032Z,4.86
2018-01-07T21:22:12.719Z,5.28
2018-01-07T21:24:41.714Z,5.46
2018-01-07T21:27:10.399Z,5.30
2018-01-07T21:29:39.043Z,5.45
2018-01-07T21:32:07.772Z,5.46
2018-01-07T21:34:36.455Z,4.84
2018-01-07T21:37:05.142Z,5.10
2018-01-07T21:39:34.115Z,4.84
2018-01-07T21:42:02.782Z,4.49
2018-01-07T21:44:31.506Z,4.34
2018-01-07T21:47:00.442Z,4.30
2018-01-07T21:49:29.862Z,4.11
2018-01-07T21:51:58.583Z,4.09
2018-01-07T21:54:27.378Z,4.01
2018-01-07T21:56:55.956Z,3.77
2018-01-07T21:59:24.750Z,3.97
2018-01-07T22:02:11.494Z,4.20
2018-01-07T22:04:55.705Z,4.14
2018-01-07T22:07:24.908Z,4.27
2018-01-07T22:09:53.547Z,4.28
2018-01-07T22:12:22.277Z,4.32
2018-01-07T22:14:50.964Z,4.32
2018-01-07T22:17:19.650Z,4.40
2018-01-07T22:19:48.421Z,4.47
2018-01-07T22:22:17.189Z,4.55
2018-01-07T22:24:45.904Z,4.61
2018-01-07T22:27:14.590Z,4.72
2018-01-07T22:29:43.542Z,4.74
2018-01-07T22:32:12.269Z,4.71
2018-01-07T22:34:41.064Z,4.57
2018-01-07T22:37:09.750Z,4.59
2018-01-07T22:39:38.435Z,4.72
2018-01-07T22:42:07.281Z,4.80
2018-01-07T22:44:35.974Z,4.98
2018-01-07T22:47:04.696Z,5.11
2018-01-07T22:49:33.333Z,5.14
2018-01-07T22:52:02.027Z,5.18
2018-01-07T22:54:30.749Z,5.17
2018-01-07T22:56:59.387Z,5.07
2018-01-07T22:59:28.121Z,4.98
2018-01-07T23:01:56.808Z,5.02
2018-01-07T23:04:25.490Z,5.02
2018-01-07T23:06:54.458Z,5.06
2018-01-07T23:09:23.170Z,4.96
2018-01-07T23:11:51.856Z,4.90
2018-01-07T23:14:20.599Z,4.77
2018-01-07T23:16:49.951Z,4.73
2018-01-07T23:19:18.636Z,4.69
2018-01-07T23:21:47.444Z,4.84
2018-01-07T23:24:16.205Z,4.78
2018-01-07T23:26:44.892Z,4.79
2018-01-07T23:29:13.842Z,4.88
2018-01-07T23:31:42.571Z,4.87
2018-01-07T23:34:11.156Z,4.67
2018-01-07T23:36:39.895Z,4.59
2018-01-07T23:39:08.588Z,4.48
2018-01-07T23:41:37.314Z,4.49
2018-01-07T23:44:07.130Z,4.49
2018-01-07T23:46:35.915Z,4.38
2018-01-07T23:49:04.600Z,4.45
2018-01-07T23:51:33.752Z,4.37
2018-01-07T23:54:03.205Z,4.39
2018-01-07T23:56:31.885Z,4.41
2018-01-07T23:59:00.880Z,4.47
